createdAt,value
2019-02-28T00:00:40.797Z,992.11
2019-02-28T00:01:37.692Z,992.14
2019-02-28T00:02:37.829Z,992.12
2019-02-28T00:03:37.977Z,992.09
2019-02-28T00:04:38.094Z,992.09
2019-02-28T00:05:39.060Z,992.07
2019-02-28T00:06:38.357Z,992.04
2019-02-28T00:07:38.528Z,992.03
2019-02-28T00:08:38.657Z,992.04
2019-02-28T00:09:38.811Z,992.05
2019-02-28T00:10:38.937Z,992.00
2019-02-28T00:11:39.502Z,991.97
2019-02-28T00:12:39.198Z,991.92
2019-02-28T00:13:39.373Z,991.96
2019-02-28T00:14:39.485Z,991.94
2019-02-28T00:15:39.612Z,991.89
2019-02-28T00:16:39.746Z,991.93
2019-02-28T00:17:42.573Z,991.89
2019-02-28T00:18:40.024Z,991.86
2019-02-28T00:19:40.148Z,991.89
2019-02-28T00:20:40.290Z,991.90
2019-02-28T00:21:41.244Z,991.87
2019-02-28T00:22:40.540Z,991.87
2019-02-28T00:23:40.676Z,991.90
2019-02-28T00:24:40.819Z,991.82
2019-02-28T00:25:40.935Z,991.77
2019-02-28T00:26:46.293Z,991.80
2019-02-28T00:27:41.203Z,991.76
2019-02-28T00:28:41.312Z,991.74
2019-02-28T00:29:41.435Z,991.66
2019-02-28T00:30:41.690Z,991.70
2019-02-28T00:31:41.713Z,991.70
2019-02-28T00:32:41.841Z,991.67
2019-02-28T00:33:41.967Z,991.67
2019-02-28T00:34:42.116Z,991.63
2019-02-28T00:35:44.678Z,991.65
2019-02-28T00:36:42.364Z,991.64
2019-02-28T00:37:42.515Z,991.62
2019-02-28T00:38:42.634Z,991.60
2019-02-28T00:39:42.768Z,991.61
2019-02-28T00:40:42.886Z,991.57
2019-02-28T00:41:44.440Z,991.57
2019-02-28T00:42:43.146Z,991.57
2019-02-28T00:43:43.275Z,991.54
2019-02-28T00:44:43.424Z,991.53
2019-02-28T00:45:43.538Z,991.50
2019-02-28T00:46:45.197Z,991.53
2019-02-28T00:47:43.788Z,991.48
2019-02-28T00:48:43.940Z,991.45
2019-02-28T00:49:44.056Z,991.44
2019-02-28T00:50:44.196Z,991.44
2019-02-28T00:51:44.315Z,991.45
2019-02-28T00:52:44.437Z,991.39
2019-02-28T00:53:44.553Z,991.38
2019-02-28T00:54:44.688Z,991.36
2019-02-28T00:55:45.890Z,991.39
2019-02-28T00:56:44.996Z,991.36
2019-02-28T00:57:45.124Z,991.37
2019-02-28T00:58:45.247Z,991.31
2019-02-28T00:59:45.394Z,991.30
2019-02-28T01:00:45.516Z,991.32
2019-02-28T01:01:45.991Z,991.35
2019-02-28T01:02:45.782Z,991.31
2019-02-28T01:03:45.908Z,991.32
2019-02-28T01:04:46.028Z,991.37
2019-02-28T01:05:46.179Z,991.31
2019-02-28T01:06:46.303Z,991.33
2019-02-28T01:07:48.154Z,991.35
2019-02-28T01:08:46.570Z,991.30
2019-02-28T01:09:46.691Z,991.31
2019-02-28T01:10:46.820Z,991.23
2019-02-28T01:11:46.943Z,991.24
2019-02-28T01:12:47.092Z,991.22
2019-02-28T01:13:47.228Z,991.18
2019-02-28T01:14:47.342Z,991.14
2019-02-28T01:15:47.475Z,991.18
2019-02-28T01:16:50.157Z,991.11
2019-02-28T01:17:47.753Z,991.11
2019-02-28T01:18:47.875Z,991.09
2019-02-28T01:19:47.996Z,991.07
2019-02-28T01:20:50.746Z,991.08
2019-02-28T01:21:48.272Z,991.10
2019-02-28T01:22:48.394Z,991.12
2019-02-28T01:23:48.523Z,991.07
2019-02-28T01:24:48.647Z,991.08
2019-02-28T01:25:48.803Z,991.11
2019-02-28T01:26:48.928Z,991.05
2019-02-28T01:27:49.055Z,991.09
2019-02-28T01:28:49.204Z,991.08
2019-02-28T01:29:49.326Z,991.11
2019-02-28T01:30:49.459Z,991.04
2019-02-28T01:31:49.579Z,991.02
2019-02-28T01:32:50.997Z,991.03
2019-02-28T01:33:49.843Z,990.97
2019-02-28T01:34:49.973Z,991.04
2019-02-28T01:35:50.104Z,991.02
2019-02-28T01:36:50.226Z,991.04
2019-02-28T01:37:52.390Z,991.06
2019-02-28T01:38:50.477Z,991.00
2019-02-28T01:39:50.603Z,991.00
2019-02-28T01:40:50.722Z,990.95
2019-02-28T01:41:50.853Z,990.93
2019-02-28T01:42:53.979Z,990.91
2019-02-28T01:43:51.116Z,990.89
2019-02-28T01:44:51.234Z,990.84
2019-02-28T01:45:51.363Z,990.90
2019-02-28T01:46:51.503Z,990.82
2019-02-28T01:47:52.352Z,990.84
2019-02-28T01:48:54.567Z,990.83
2019-02-28T01:49:51.889Z,990.83
2019-02-28T01:50:52.018Z,990.87
2019-02-28T01:51:52.138Z,990.84
2019-02-28T01:52:52.266Z,990.82
2019-02-28T01:53:53.621Z,990.88
2019-02-28T01:54:52.537Z,990.83
2019-02-28T01:55:52.658Z,990.81
2019-02-28T01:56:52.786Z,990.79
2019-02-28T01:57:52.911Z,990.74
2019-02-28T01:58:53.101Z,990.78
2019-02-28T01:59:53.684Z,990.77
2019-02-28T02:00:53.756Z,990.78
2019-02-28T02:01:53.443Z,990.81
2019-02-28T02:02:53.568Z,990.78
2019-02-28T02:03:53.698Z,990.78
2019-02-28T02:04:53.871Z,990.71
2019-02-28T02:05:53.990Z,990.68
2019-02-28T02:06:54.111Z,990.63
2019-02-28T02:07:54.234Z,990.72
2019-02-28T02:08:54.370Z,990.66
2019-02-28T02:09:54.494Z,990.68
2019-02-28T02:10:56.006Z,990.66
2019-02-28T02:11:57.991Z,990.65
2019-02-28T02:12:54.880Z,990.63
2019-02-28T02:13:55.003Z,990.62
2019-02-28T02:14:55.130Z,990.61
2019-02-28T02:15:55.292Z,990.55
2019-02-28T02:16:55.409Z,990.53
2019-02-28T02:17:55.538Z,990.54
2019-02-28T02:18:55.663Z,990.51
2019-02-28T02:19:55.808Z,990.53
2019-02-28T02:20:57.422Z,990.49
2019-02-28T02:21:56.065Z,990.48
2019-02-28T02:22:56.183Z,990.46
2019-02-28T02:23:56.331Z,990.48
2019-02-28T02:24:59.426Z,990.45
2019-02-28T02:25:56.575Z,990.43
2019-02-28T02:26:56.708Z,990.37
2019-02-28T02:27:56.829Z,990.39
2019-02-28T02:29:00.838Z,990.41
2019-02-28T02:29:57.088Z,990.39
2019-02-28T02:30:57.227Z,990.42
2019-02-28T02:32:01.007Z,990.45
2019-02-28T02:32:57.465Z,990.42
2019-02-28T02:33:57.605Z,990.42
2019-02-28T02:35:06.198Z,990.40
2019-02-28T02:35:57.868Z,990.36
2019-02-28T02:36:57.982Z,990.32
2019-02-28T02:37:58.148Z,990.30
2019-02-28T02:38:58.266Z,990.27
2019-02-28T02:39:58.395Z,990.27
2019-02-28T02:41:00.579Z,990.23
2019-02-28T02:41:58.653Z,990.22
2019-02-28T02:42:58.786Z,990.21
2019-02-28T02:43:58.897Z,990.21
2019-02-28T02:44:59.029Z,990.19
2019-02-28T02:45:59.165Z,990.18
2019-02-28T02:46:59.285Z,990.16
2019-02-28T02:47:59.422Z,990.18
2019-02-28T02:48:59.552Z,990.13
2019-02-28T02:49:59.699Z,990.15
2019-02-28T02:50:59.821Z,990.13
2019-02-28T02:51:59.952Z,990.11
2019-02-28T02:53:04.887Z,990.13
2019-02-28T02:54:00.215Z,990.11
2019-02-28T02:55:00.357Z,990.13
2019-02-28T02:56:03.869Z,990.12
2019-02-28T02:57:00.589Z,990.13
2019-02-28T02:58:00.739Z,990.09
2019-02-28T02:59:01.985Z,990.11
2019-02-28T03:00:00.984Z,990.08
2019-02-28T03:01:01.134Z,990.02
2019-02-28T03:02:01.260Z,990.03
2019-02-28T03:03:05.298Z,990.01
2019-02-28T03:04:01.511Z,990.02
2019-02-28T03:05:01.661Z,989.98
2019-02-28T03:06:01.776Z,989.99
2019-02-28T03:07:01.923Z,989.96
2019-02-28T03:08:02.028Z,990.01
2019-02-28T03:09:02.170Z,989.94
2019-02-28T03:10:02.300Z,989.96
2019-02-28T03:11:02.426Z,989.97
2019-02-28T03:12:02.548Z,989.97
2019-02-28T03:13:04.849Z,989.99
2019-02-28T03:14:02.814Z,989.95
2019-02-28T03:15:02.944Z,989.95
2019-02-28T03:16:03.080Z,989.95
2019-02-28T03:17:09.700Z,989.89
2019-02-28T03:18:03.335Z,989.92
2019-02-28T03:19:03.456Z,989.89
2019-02-28T03:20:07.370Z,989.92
2019-02-28T03:21:03.740Z,989.86
2019-02-28T03:22:03.861Z,989.88
2019-02-28T03:23:03.992Z,989.81
2019-02-28T03:24:04.102Z,989.80
2019-02-28T03:25:04.247Z,989.81
2019-02-28T03:26:06.850Z,989.76
2019-02-28T03:27:04.496Z,989.78
2019-02-28T03:28:04.628Z,989.77
2019-02-28T03:29:08.061Z,989.73
2019-02-28T03:30:04.895Z,989.74
2019-02-28T03:31:11.657Z,989.74
2019-02-28T03:32:05.147Z,989.71
2019-02-28T03:33:05.270Z,989.75
2019-02-28T03:34:12.825Z,989.68
2019-02-28T03:35:05.536Z,989.66
2019-02-28T03:36:05.664Z,989.68
2019-02-28T03:37:05.783Z,989.67
2019-02-28T03:38:10.767Z,989.67
2019-02-28T03:39:06.068Z,989.65
2019-02-28T03:40:06.192Z,989.66
2019-02-28T03:41:06.320Z,989.63
2019-02-28T03:42:06.439Z,989.67
2019-02-28T03:43:07.060Z,989.68
2019-02-28T03:44:06.721Z,989.67
2019-02-28T03:45:06.848Z,989.70
2019-02-28T03:46:10.312Z,989.70
2019-02-28T03:47:07.102Z,989.70
2019-02-28T03:48:07.225Z,989.66
2019-02-28T03:49:11.740Z,989.72
2019-02-28T03:50:07.472Z,989.69
2019-02-28T03:51:07.656Z,989.65
2019-02-28T03:52:07.778Z,989.62
2019-02-28T03:53:07.895Z,989.65
2019-02-28T03:54:08.027Z,989.65
2019-02-28T03:55:08.182Z,989.59
2019-02-28T03:56:08.305Z,989.63
2019-02-28T03:57:08.459Z,989.62
2019-02-28T03:58:08.579Z,989.60
2019-02-28T03:59:08.708Z,989.61
2019-02-28T04:00:08.829Z,989.61
2019-02-28T04:01:10.197Z,989.58
2019-02-28T04:02:09.091Z,989.56
2019-02-28T04:03:09.216Z,989.58
2019-02-28T04:04:12.266Z,989.56
2019-02-28T04:05:09.475Z,989.53
2019-02-28T04:06:09.599Z,989.57
2019-02-28T04:07:15.564Z,989.50
2019-02-28T04:08:09.876Z,989.50
2019-02-28T04:09:09.994Z,989.50
2019-02-28T04:10:10.121Z,989.43
2019-02-28T04:11:10.270Z,989.45
2019-02-28T04:12:10.393Z,989.40
2019-02-28T04:13:10.519Z,989.44
2019-02-28T04:14:10.645Z,989.43
2019-02-28T04:15:11.359Z,989.43
2019-02-28T04:16:10.949Z,989.43
2019-02-28T04:17:11.023Z,989.48
2019-02-28T04:18:11.151Z,989.47
2019-02-28T04:19:11.321Z,989.39
2019-02-28T04:20:11.438Z,989.39
2019-02-28T04:21:12.146Z,989.44
2019-02-28T04:22:11.706Z,989.35
2019-02-28T04:23:11.829Z,989.37
2019-02-28T04:24:13.921Z,989.34
2019-02-28T04:25:12.110Z,989.32
2019-02-28T04:26:12.240Z,989.32
2019-02-28T04:27:12.367Z,989.28
2019-02-28T04:28:17.272Z,989.31
2019-02-28T04:29:12.620Z,989.27
2019-02-28T04:30:12.738Z,989.34
2019-02-28T04:31:18.711Z,989.30
2019-02-28T04:32:13.048Z,989.31
2019-02-28T04:33:13.168Z,989.31
2019-02-28T04:34:14.413Z,989.31
2019-02-28T04:35:13.429Z,989.30
2019-02-28T04:36:13.574Z,989.31
2019-02-28T04:37:13.702Z,989.35
2019-02-28T04:38:13.842Z,989.32
2019-02-28T04:39:13.952Z,989.35
2019-02-28T04:40:14.098Z,989.30
2019-02-28T04:41:14.218Z,989.27
2019-02-28T04:42:14.366Z,989.31
2019-02-28T04:43:14.474Z,989.28
2019-02-28T04:44:15.343Z,989.27
2019-02-28T04:45:14.750Z,989.26
2019-02-28T04:46:14.875Z,989.24
2019-02-28T04:47:15.003Z,989.27
2019-02-28T04:48:15.142Z,989.29
2019-02-28T04:49:15.263Z,989.28
2019-02-28T04:50:15.393Z,989.32
2019-02-28T04:51:15.535Z,989.28
2019-02-28T04:52:15.660Z,989.28
2019-02-28T04:53:18.920Z,989.23
2019-02-28T04:54:15.907Z,989.26
2019-02-28T04:55:16.049Z,989.29
2019-02-28T04:56:16.163Z,989.30
2019-02-28T04:57:17.331Z,989.35
2019-02-28T04:58:16.416Z,989.28
2019-02-28T04:59:16.561Z,989.28
2019-02-28T05:00:16.667Z,989.32
2019-02-28T05:01:16.799Z,989.29
2019-02-28T05:02:19.698Z,989.31
2019-02-28T05:03:17.057Z,989.36
2019-02-28T05:04:17.179Z,989.32
2019-02-28T05:05:17.304Z,989.39
2019-02-28T05:06:18.292Z,989.41
2019-02-28T05:07:17.629Z,989.39
2019-02-28T05:08:17.718Z,989.41
2019-02-28T05:09:17.852Z,989.43
2019-02-28T05:10:19.261Z,989.40
2019-02-28T05:11:18.123Z,989.35
2019-02-28T05:12:18.227Z,989.39
2019-02-28T05:13:18.357Z,989.41
2019-02-28T05:14:23.392Z,989.40
2019-02-28T05:15:18.653Z,989.43
2019-02-28T05:16:18.761Z,989.46
2019-02-28T05:17:19.400Z,989.42
2019-02-28T05:18:19.019Z,989.45
2019-02-28T05:19:19.169Z,989.39
2019-02-28T05:20:19.281Z,989.43
2019-02-28T05:21:19.649Z,989.37
2019-02-28T05:22:19.531Z,989.33
2019-02-28T05:23:19.660Z,989.38
2019-02-28T05:24:19.791Z,989.36
2019-02-28T05:25:19.916Z,989.35
2019-02-28T05:26:20.042Z,989.34
2019-02-28T05:27:20.172Z,989.35
2019-02-28T05:28:20.297Z,989.38
2019-02-28T05:29:20.418Z,989.36
2019-02-28T05:30:20.622Z,989.32
2019-02-28T05:31:20.673Z,989.34
2019-02-28T05:32:20.797Z,989.32
2019-02-28T05:33:20.920Z,989.28
2019-02-28T05:34:21.046Z,989.25
2019-02-28T05:35:25.619Z,989.30
2019-02-28T05:36:21.299Z,989.31
2019-02-28T05:37:21.433Z,989.26
2019-02-28T05:38:22.556Z,989.26
2019-02-28T05:39:21.668Z,989.23
2019-02-28T05:40:21.796Z,989.21
2019-02-28T05:41:21.918Z,989.21
2019-02-28T05:42:23.347Z,989.32
2019-02-28T05:43:22.176Z,989.32
2019-02-28T05:44:22.297Z,989.33
2019-02-28T05:45:22.428Z,989.31
2019-02-28T05:46:23.808Z,989.27
2019-02-28T05:47:22.679Z,989.22
2019-02-28T05:48:22.806Z,989.25
2019-02-28T05:49:22.939Z,989.24
2019-02-28T05:50:23.065Z,989.25
2019-02-28T05:51:24.896Z,989.24
2019-02-28T05:52:23.337Z,989.24
2019-02-28T05:53:23.442Z,989.23
2019-02-28T05:54:23.566Z,989.23
2019-02-28T05:55:25.578Z,989.19
2019-02-28T05:56:23.821Z,989.27
2019-02-28T05:57:23.947Z,989.28
2019-02-28T05:58:24.081Z,989.27
2019-02-28T05:59:27.378Z,989.22
2019-02-28T06:00:24.338Z,989.27
2019-02-28T06:01:24.455Z,989.27
2019-02-28T06:02:25.677Z,989.25
2019-02-28T06:03:24.704Z,989.28
2019-02-28T06:04:24.826Z,989.24
2019-02-28T06:05:24.958Z,989.26
2019-02-28T06:06:25.083Z,989.24
2019-02-28T06:07:25.960Z,989.26
2019-02-28T06:08:25.332Z,989.26
2019-02-28T06:09:25.454Z,989.26
2019-02-28T06:10:25.581Z,989.18
2019-02-28T06:11:25.713Z,989.18
2019-02-28T06:12:25.852Z,989.23
2019-02-28T06:13:25.976Z,989.22
2019-02-28T06:14:27.548Z,989.20
2019-02-28T06:15:26.248Z,989.20
2019-02-28T06:16:26.362Z,989.19
2019-02-28T06:17:26.499Z,989.19
2019-02-28T06:18:32.523Z,989.22
2019-02-28T06:19:26.766Z,989.23
2019-02-28T06:20:26.897Z,989.28
2019-02-28T06:21:27.018Z,989.33
2019-02-28T06:22:27.141Z,989.39
2019-02-28T06:23:27.271Z,989.39
2019-02-28T06:24:27.412Z,989.35
2019-02-28T06:25:27.538Z,989.40
2019-02-28T06:26:27.658Z,989.48
2019-02-28T06:27:27.797Z,989.44
2019-02-28T06:28:30.984Z,989.44
2019-02-28T06:29:28.092Z,989.47
2019-02-28T06:30:28.227Z,989.50
2019-02-28T06:31:28.368Z,989.51
2019-02-28T06:32:28.490Z,989.48
2019-02-28T06:33:30.705Z,989.50
2019-02-28T06:34:28.747Z,989.56
2019-02-28T06:35:28.875Z,989.60
2019-02-28T06:36:29.191Z,989.60
2019-02-28T06:37:29.124Z,989.62
2019-02-28T06:38:29.251Z,989.63
2019-02-28T06:39:29.396Z,989.62
2019-02-28T06:40:32.797Z,989.64
2019-02-28T06:41:29.654Z,989.67
2019-02-28T06:42:29.771Z,989.62
2019-02-28T06:43:29.910Z,989.68
2019-02-28T06:44:30.044Z,989.63
2019-02-28T06:45:30.165Z,989.64
2019-02-28T06:46:30.319Z,989.63
2019-02-28T06:47:30.442Z,989.63
2019-02-28T06:48:30.573Z,989.64
2019-02-28T06:49:30.708Z,989.61
2019-02-28T06:50:30.827Z,989.64
2019-02-28T06:51:30.949Z,989.67
2019-02-28T06:52:31.085Z,989.70
2019-02-28T06:53:33.920Z,989.68
2019-02-28T06:54:31.345Z,989.74
2019-02-28T06:55:31.467Z,989.71
2019-02-28T06:56:31.628Z,989.82
2019-02-28T06:57:33.077Z,989.75
2019-02-28T06:58:33.280Z,989.75
2019-02-28T06:59:31.988Z,989.71
2019-02-28T07:00:32.126Z,989.75
2019-02-28T07:01:32.249Z,989.76
2019-02-28T07:02:32.376Z,989.77
2019-02-28T07:03:35.169Z,989.74
2019-02-28T07:04:32.656Z,989.73
2019-02-28T07:05:32.783Z,989.73
2019-02-28T07:06:35.693Z,989.73
2019-02-28T07:07:33.049Z,989.71
2019-02-28T07:08:33.186Z,989.71
2019-02-28T07:09:33.661Z,989.68
2019-02-28T07:10:33.451Z,989.65
2019-02-28T07:11:33.565Z,989.64
2019-02-28T07:12:33.721Z,989.63
2019-02-28T07:13:38.999Z,989.62
2019-02-28T07:14:33.977Z,989.61
2019-02-28T07:15:34.105Z,989.53
2019-02-28T07:16:37.656Z,989.52
2019-02-28T07:17:34.391Z,989.52
2019-02-28T07:18:34.518Z,989.54
2019-02-28T07:19:34.670Z,989.48
2019-02-28T07:20:35.245Z,989.51
2019-02-28T07:21:34.932Z,989.52
2019-02-28T07:22:35.124Z,989.55
2019-02-28T07:23:35.204Z,989.52
2019-02-28T07:24:37.454Z,989.52
2019-02-28T07:25:35.463Z,989.54
2019-02-28T07:26:35.600Z,989.50
2019-02-28T07:27:35.722Z,989.52
2019-02-28T07:28:37.392Z,989.48
2019-02-28T07:29:35.988Z,989.49
2019-02-28T07:30:36.111Z,989.52
2019-02-28T07:31:36.253Z,989.43
2019-02-28T07:32:36.385Z,989.44
2019-02-28T07:33:36.507Z,989.48
2019-02-28T07:34:36.631Z,989.49
2019-02-28T07:35:36.961Z,989.53
2019-02-28T07:36:36.902Z,989.51
2019-02-28T07:37:37.013Z,989.51
2019-02-28T07:38:37.138Z,989.49
2019-02-28T07:39:40.378Z,989.50
2019-02-28T07:40:37.427Z,989.47
2019-02-28T07:41:37.560Z,989.46
2019-02-28T07:42:38.568Z,989.45
2019-02-28T07:43:37.871Z,989.46
2019-02-28T07:44:38.119Z,989.50
2019-02-28T07:45:38.072Z,989.42
2019-02-28T07:46:38.544Z,989.42
2019-02-28T07:47:38.361Z,989.38
2019-02-28T07:48:38.478Z,989.37
2019-02-28T07:49:38.605Z,989.38
2019-02-28T07:50:38.751Z,989.34
2019-02-28T07:51:38.875Z,989.36
2019-02-28T07:52:39.006Z,989.34
2019-02-28T07:53:40.922Z,989.39
2019-02-28T07:54:39.288Z,989.36
2019-02-28T07:55:39.425Z,989.32
2019-02-28T07:56:43.078Z,989.32
2019-02-28T07:57:39.694Z,989.37
2019-02-28T07:58:39.809Z,989.37
2019-02-28T07:59:42.398Z,989.35
2019-02-28T08:00:40.067Z,989.28
2019-02-28T08:01:40.211Z,989.29
2019-02-28T08:02:40.334Z,989.32
2019-02-28T08:03:43.366Z,989.37
2019-02-28T08:04:40.588Z,989.34
2019-02-28T08:05:40.725Z,989.33
2019-02-28T08:06:40.843Z,989.37
2019-02-28T08:07:40.973Z,989.37
2019-02-28T08:08:41.129Z,989.36
2019-02-28T08:09:41.603Z,989.39
2019-02-28T08:10:41.373Z,989.38
2019-02-28T08:11:41.502Z,989.39
2019-02-28T08:12:41.640Z,989.32
2019-02-28T08:13:41.762Z,989.35
2019-02-28T08:14:43.623Z,989.35
2019-02-28T08:15:42.025Z,989.39
2019-02-28T08:16:42.153Z,989.38
2019-02-28T08:17:43.859Z,989.36
2019-02-28T08:18:42.401Z,989.34
2019-02-28T08:19:42.539Z,989.35
2019-02-28T08:20:42.670Z,989.34
2019-02-28T08:21:47.575Z,989.34
2019-02-28T08:22:42.927Z,989.29
2019-02-28T08:23:43.049Z,989.29
2019-02-28T08:24:43.185Z,989.34
2019-02-28T08:25:43.553Z,989.35
2019-02-28T08:26:43.774Z,989.30
2019-02-28T08:27:43.563Z,989.31
2019-02-28T08:28:43.693Z,989.25
2019-02-28T08:29:45.781Z,989.35
2019-02-28T08:30:43.948Z,989.31
2019-02-28T08:31:44.069Z,989.42
2019-02-28T08:32:46.821Z,989.40
2019-02-28T08:33:44.328Z,989.42
2019-02-28T08:34:46.775Z,989.39
2019-02-28T08:35:44.587Z,989.39
2019-02-28T08:36:46.964Z,989.37
2019-02-28T08:37:44.852Z,989.32
2019-02-28T08:38:44.984Z,989.35
2019-02-28T08:39:45.120Z,989.32
2019-02-28T08:40:50.293Z,989.32
2019-02-28T08:41:45.369Z,989.30
2019-02-28T08:42:45.521Z,989.34
2019-02-28T08:43:47.832Z,989.35
2019-02-28T08:44:45.767Z,989.32
2019-02-28T08:45:45.899Z,989.34
2019-02-28T08:46:46.483Z,989.31
2019-02-28T08:47:46.150Z,989.27
2019-02-28T08:48:46.329Z,989.21
2019-02-28T08:49:46.411Z,989.15
2019-02-28T08:50:46.545Z,989.14
2019-02-28T08:51:46.673Z,989.11
2019-02-28T08:52:48.313Z,989.13
2019-02-28T08:53:50.782Z,989.14
2019-02-28T08:54:47.057Z,989.14
2019-02-28T08:55:47.193Z,989.19
2019-02-28T08:56:49.564Z,989.18
2019-02-28T08:57:54.457Z,989.16
2019-02-28T08:58:47.578Z,989.18
2019-02-28T08:59:47.712Z,989.21
2019-02-28T09:00:47.843Z,989.23
2019-02-28T09:01:47.968Z,989.22
2019-02-28T09:02:52.227Z,989.21
2019-02-28T09:03:50.216Z,989.21
2019-02-28T09:04:50.889Z,989.29
2019-02-28T09:05:48.536Z,989.33
2019-02-28T09:06:48.670Z,989.31
2019-02-28T09:07:51.282Z,989.32
2019-02-28T09:08:48.928Z,989.32
2019-02-28T09:09:49.051Z,989.28
2019-02-28T09:10:49.175Z,989.28
2019-02-28T09:11:49.298Z,989.29
2019-02-28T09:12:49.432Z,989.22
2019-02-28T09:13:49.557Z,989.23
2019-02-28T09:14:51.981Z,989.26
2019-02-28T09:15:50.672Z,989.18
2019-02-28T09:16:49.966Z,989.14
2019-02-28T09:17:50.118Z,989.11
2019-02-28T09:18:50.234Z,989.12
2019-02-28T09:19:50.358Z,989.12
2019-02-28T09:20:50.487Z,989.16
2019-02-28T09:21:52.927Z,989.11
2019-02-28T09:22:50.751Z,989.12
2019-02-28T09:23:50.884Z,989.13
2019-02-28T09:24:51.007Z,989.09
2019-02-28T09:25:53.350Z,989.05
2019-02-28T09:26:51.271Z,989.07
2019-02-28T09:27:51.403Z,989.08
2019-02-28T09:28:51.537Z,989.09
2019-02-28T09:29:54.364Z,989.01
2019-02-28T09:30:51.812Z,989.00
2019-02-28T09:31:51.930Z,988.96
2019-02-28T09:32:52.071Z,988.91
2019-02-28T09:33:52.202Z,988.94
2019-02-28T09:34:52.333Z,988.94
2019-02-28T09:35:52.458Z,988.93
2019-02-28T09:36:56.488Z,989.02
2019-02-28T09:37:52.719Z,988.97
2019-02-28T09:38:57.100Z,988.94
2019-02-28T09:39:54.254Z,988.95
2019-02-28T09:40:53.110Z,988.95
2019-02-28T09:41:53.243Z,988.96
2019-02-28T09:42:53.377Z,988.91
2019-02-28T09:43:57.205Z,988.90
2019-02-28T09:44:53.639Z,988.87
2019-02-28T09:45:53.771Z,988.92
2019-02-28T09:46:53.908Z,988.82
2019-02-28T09:47:54.036Z,988.84
2019-02-28T09:48:54.167Z,988.89
2019-02-28T09:49:54.312Z,988.80
2019-02-28T09:50:58.025Z,988.87
2019-02-28T09:51:54.556Z,988.87
2019-02-28T09:52:54.679Z,988.93
2019-02-28T09:53:54.811Z,988.93
2019-02-28T09:54:56.299Z,988.92
2019-02-28T09:55:55.075Z,988.93
2019-02-28T09:56:55.207Z,988.93
2019-02-28T09:57:56.936Z,988.95
2019-02-28T09:58:55.480Z,988.96
2019-02-28T09:59:55.604Z,988.96
2019-02-28T10:00:55.743Z,988.98
2019-02-28T10:02:01.429Z,988.92
2019-02-28T10:02:56.000Z,988.96
2019-02-28T10:03:56.222Z,988.99
2019-02-28T10:04:56.267Z,988.95
2019-02-28T10:05:56.400Z,988.99
2019-02-28T10:06:56.952Z,988.98
2019-02-28T10:08:01.751Z,988.98
2019-02-28T10:08:56.802Z,988.98
2019-02-28T10:09:56.932Z,988.98
2019-02-28T10:10:57.079Z,989.01
2019-02-28T10:11:57.203Z,989.06
2019-02-28T10:12:57.329Z,989.07
2019-02-28T10:13:57.464Z,989.08
2019-02-28T10:15:00.649Z,989.06
2019-02-28T10:15:57.732Z,989.05
2019-02-28T10:16:57.852Z,989.05
2019-02-28T10:18:00.622Z,989.05
2019-02-28T10:18:58.121Z,989.14
2019-02-28T10:19:58.262Z,989.10
2019-02-28T10:20:59.037Z,989.15
2019-02-28T10:21:58.520Z,989.13
2019-02-28T10:22:58.676Z,989.11
2019-02-28T10:23:58.792Z,989.15
2019-02-28T10:24:58.934Z,989.14
2019-02-28T10:25:59.060Z,989.13
2019-02-28T10:26:59.187Z,989.09
2019-02-28T10:28:02.575Z,989.09
2019-02-28T10:29:01.205Z,989.04
2019-02-28T10:29:59.593Z,989.14
2019-02-28T10:30:59.733Z,989.24
2019-02-28T10:31:59.869Z,989.22
2019-02-28T10:33:00.000Z,989.21
2019-02-28T10:34:00.150Z,989.21
2019-02-28T10:35:01.384Z,989.22
2019-02-28T10:36:00.402Z,989.22
2019-02-28T10:37:00.546Z,989.25
2019-02-28T10:38:00.678Z,989.20
2019-02-28T10:39:02.694Z,989.21
2019-02-28T10:40:00.951Z,989.24
2019-02-28T10:41:01.110Z,989.22
2019-02-28T10:42:01.494Z,989.20
2019-02-28T10:43:01.367Z,989.25
2019-02-28T10:44:01.511Z,989.21
2019-02-28T10:45:03.613Z,989.19
2019-02-28T10:46:01.780Z,989.15
2019-02-28T10:47:01.916Z,989.18
2019-02-28T10:48:03.869Z,989.27
2019-02-28T10:49:02.192Z,989.25
2019-02-28T10:50:02.324Z,989.27
2019-02-28T10:51:12.250Z,989.26
2019-02-28T10:52:02.602Z,989.29
2019-02-28T10:53:05.508Z,989.31
2019-02-28T10:54:02.884Z,989.36
2019-02-28T10:55:03.010Z,989.41
2019-02-28T10:56:03.157Z,989.31
2019-02-28T10:57:05.957Z,989.34
2019-02-28T10:58:03.432Z,989.28
2019-02-28T10:59:03.570Z,989.26
2019-02-28T11:00:03.704Z,989.28
2019-02-28T11:01:07.700Z,989.22
2019-02-28T11:02:03.990Z,989.25
2019-02-28T11:03:04.132Z,989.25
2019-02-28T11:04:04.541Z,989.29
2019-02-28T11:05:04.403Z,989.25
2019-02-28T11:06:04.537Z,989.15
2019-02-28T11:07:04.685Z,989.25
2019-02-28T11:08:04.816Z,989.18
2019-02-28T11:09:04.953Z,989.25
2019-02-28T11:10:05.099Z,989.19
2019-02-28T11:11:07.323Z,989.18
2019-02-28T11:12:05.361Z,989.18
2019-02-28T11:13:05.503Z,989.23
2019-02-28T11:14:05.642Z,989.21
2019-02-28T11:15:05.781Z,989.20
2019-02-28T11:16:05.917Z,989.25
2019-02-28T11:17:12.270Z,989.10
2019-02-28T11:18:09.639Z,989.02
2019-02-28T11:19:06.332Z,989.07
2019-02-28T11:20:06.474Z,989.08
2019-02-28T11:21:06.617Z,989.13
2019-02-28T11:22:06.750Z,989.18
2019-02-28T11:23:07.740Z,989.14
2019-02-28T11:24:07.028Z,989.10
2019-02-28T11:25:07.159Z,989.04
2019-02-28T11:26:09.563Z,989.09
2019-02-28T11:27:07.436Z,989.10
2019-02-28T11:28:07.569Z,989.14
2019-02-28T11:29:07.710Z,989.13
2019-02-28T11:30:10.077Z,989.05
2019-02-28T11:31:07.989Z,989.00
2019-02-28T11:32:08.132Z,989.12
2019-02-28T11:33:08.274Z,989.12
2019-02-28T11:34:08.426Z,989.16
2019-02-28T11:35:08.550Z,989.15
2019-02-28T11:36:08.698Z,989.06
2019-02-28T11:37:09.810Z,989.02
2019-02-28T11:38:08.981Z,989.02
2019-02-28T11:39:09.113Z,989.08
2019-02-28T11:40:09.271Z,989.09
2019-02-28T11:41:09.376Z,989.06
2019-02-28T11:42:09.511Z,989.01
2019-02-28T11:43:09.651Z,989.01
2019-02-28T11:44:12.003Z,988.92
2019-02-28T11:45:09.926Z,988.95
2019-02-28T11:46:10.101Z,988.98
2019-02-28T11:47:11.207Z,988.91
2019-02-28T11:48:10.347Z,988.98
2019-02-28T11:49:10.474Z,988.97
2019-02-28T11:50:10.612Z,988.93
2019-02-28T11:51:10.737Z,988.83
2019-02-28T11:52:10.881Z,988.90
2019-02-28T11:53:11.013Z,988.88
2019-02-28T11:54:12.305Z,988.83
2019-02-28T11:55:11.284Z,988.74
2019-02-28T11:56:11.424Z,988.84
2019-02-28T11:57:11.557Z,988.83
2019-02-28T11:58:16.578Z,988.91
2019-02-28T11:59:11.840Z,988.98
2019-02-28T12:00:13.439Z,988.80
2019-02-28T12:01:12.113Z,988.81
2019-02-28T12:02:12.246Z,988.80
2019-02-28T12:03:12.384Z,988.74
2019-02-28T12:04:12.531Z,988.79
2019-02-28T12:05:15.696Z,988.87
2019-02-28T12:06:12.789Z,988.85
2019-02-28T12:07:12.928Z,988.80
2019-02-28T12:08:13.084Z,988.77
2019-02-28T12:09:13.217Z,988.74
2019-02-28T12:10:13.354Z,988.70
2019-02-28T12:11:13.505Z,988.70
2019-02-28T12:12:13.630Z,988.70
2019-02-28T12:13:16.542Z,988.79
2019-02-28T12:14:13.918Z,988.70
2019-02-28T12:15:14.049Z,988.64
2019-02-28T12:16:16.275Z,988.64
2019-02-28T12:17:15.137Z,988.70
2019-02-28T12:18:14.464Z,988.69
2019-02-28T12:19:15.847Z,988.68
2019-02-28T12:20:14.741Z,988.63
2019-02-28T12:21:14.879Z,988.67
2019-02-28T12:22:15.014Z,988.65
2019-02-28T12:23:15.143Z,988.69
2019-02-28T12:24:15.280Z,988.66
2019-02-28T12:25:15.425Z,988.63
2019-02-28T12:26:17.711Z,988.66
2019-02-28T12:27:15.701Z,988.62
2019-02-28T12:28:15.828Z,988.60
2019-02-28T12:29:15.963Z,988.55
2019-02-28T12:30:16.096Z,988.56